sensor_id;sensor_type;location;lat;lon;timestamp;pressure;altitude;pressure_sealevel;temperature;humidity
40788;BME280;26497;52.494;7.546;2022-12-05T00:00:54;101222.19;;;9.28;61.99
40788;BME280;26497;52.494;7.546;2022-12-05T00:03:22;101218.69;;;9.28;61.67
40788;BME280;26497;52.494;7.546;2022-12-05T00:05:49;101218.69;;;9.29;61.61
40788;BME280;26497;52.494;7.546;2022-12-05T00:08:16;101217.00;;;9.33;61.78
40788;BME280;26497;52.494;7.546;2022-12-05T00:10:43;101208.28;;;9.37;61.44
40788;BME280;26497;52.494;7.546;2022-12-05T00:13:10;101216.16;;;9.36;61.63
40788;BME280;26497;52.494;7.546;2022-12-05T00:15:38;101213.47;;;9.33;61.74
40788;BME280;26497;52.494;7.546;2022-12-05T00:18:07;101210.03;;;9.35;61.48
40788;BME280;26497;52.494;7.546;2022-12-05T00:20:34;101203.91;;;9.38;61.43
40788;BME280;26497;52.494;7.546;2022-12-05T00:23:01;101209.06;;;9.32;61.92
40788;BME280;26497;52.494;7.546;2022-12-05T00:25:28;101203.97;;;9.42;61.83
40788;BME280;26497;52.494;7.546;2022-12-05T00:27:55;101203.09;;;9.43;61.62
40788;BME280;26497;52.494;7.546;2022-12-05T00:30:22;101192.66;;;9.50;61.61
40788;BME280;26497;52.494;7.546;2022-12-05T00:32:49;101197.06;;;9.51;61.29
40788;BME280;26497;52.494;7.546;2022-12-05T00:35:17;101201.41;;;9.49;61.56
40788;BME280;26497;52.494;7.546;2022-12-05T00:37:44;101201.50;;;9.55;61.68
40788;BME280;26497;52.494;7.546;2022-12-05T00:40:12;101203.22;;;9.53;61.16
40788;BME280;26497;52.494;7.546;2022-12-05T00:42:39;101198.88;;;9.55;61.43
40788;BME280;26497;52.494;7.546;2022-12-05T00:45:07;101202.31;;;9.52;61.45
40788;BME280;26497;52.494;7.546;2022-12-05T00:47:35;101202.41;;;9.57;61.19
40788;BME280;26497;52.494;7.546;2022-12-05T00:50:02;101198.91;;;9.58;61.39
40788;BME280;26497;52.494;7.546;2022-12-05T00:52:30;101205.03;;;9.57;61.50
40788;BME280;26497;52.494;7.546;2022-12-05T00:54:57;101204.16;;;9.58;61.27
40788;BME280;26497;52.494;7.546;2022-12-05T00:57:24;101201.50;;;9.55;61.47
40788;BME280;26497;52.494;7.546;2022-12-05T00:59:52;101198.81;;;9.52;61.62
40788;BME280;26497;52.494;7.546;2022-12-05T01:02:19;101205.13;;;9.63;61.22
40788;BME280;26497;52.494;7.546;2022-12-05T01:04:46;101202.38;;;9.55;61.41
40788;BME280;26497;52.494;7.546;2022-12-05T01:07:13;101200.59;;;9.54;61.45
40788;BME280;26497;52.494;7.546;2022-12-05T01:09:41;101198.88;;;9.56;61.84
40788;BME280;26497;52.494;7.546;2022-12-05T01:12:08;101199.78;;;9.57;61.76
40788;BME280;26497;52.494;7.546;2022-12-05T01:14:35;101198.94;;;9.63;61.23
40788;BME280;26497;52.494;7.546;2022-12-05T01:17:02;101197.22;;;9.65;61.27
40788;BME280;26497;52.494;7.546;2022-12-05T01:19:31;101199.88;;;9.66;61.54
40788;BME280;26497;52.494;7.546;2022-12-05T01:21:59;101200.63;;;9.56;61.67
40788;BME280;26497;52.494;7.546;2022-12-05T01:24:27;101199.88;;;9.66;61.43
40788;BME280;26497;52.494;7.546;2022-12-05T01:26:56;101188.59;;;9.77;60.91
40788;BME280;26497;52.494;7.546;2022-12-05T01:29:24;101191.97;;;9.68;61.54
40788;BME280;26497;52.494;7.546;2022-12-05T01:31:52;101190.25;;;9.70;60.94
40788;BME280;26497;52.494;7.546;2022-12-05T01:34:20;101196.31;;;9.63;61.52
40788;BME280;26497;52.494;7.546;2022-12-05T01:36:47;101192.88;;;9.70;61.36
40788;BME280;26497;52.494;7.546;2022-12-05T01:39:15;101197.31;;;9.72;60.95
40788;BME280;26497;52.494;7.546;2022-12-05T01:41:45;101197.13;;;9.58;61.93
40788;BME280;26497;52.494;7.546;2022-12-05T01:45:06;101201.69;;;9.70;61.54
40788;BME280;26497;52.494;7.546;2022-12-05T01:47:35;101201.53;;;9.58;61.87
40788;BME280;26497;52.494;7.546;2022-12-05T01:50:04;101198.94;;;9.61;61.82
40788;BME280;26497;52.494;7.546;2022-12-05T01:52:33;101197.22;;;9.63;61.86
40788;BME280;26497;52.494;7.546;2022-12-05T01:55:06;101202.59;;;9.72;61.64
40788;BME280;26497;52.494;7.546;2022-12-05T01:57:34;101198.25;;;9.79;61.62
40788;BME280;26497;52.494;7.546;2022-12-05T02:00:08;101196.38;;;9.67;61.67
40788;BME280;26497;52.494;7.546;2022-12-05T02:02:36;101202.56;;;9.71;62.00
40788;BME280;26497;52.494;7.546;2022-12-05T02:05:08;101201.78;;;9.80;61.53
40788;BME280;26497;52.494;7.546;2022-12-05T02:07:38;101198.28;;;9.81;61.53
40788;BME280;26497;52.494;7.546;2022-12-05T02:10:09;101198.38;;;9.87;61.41
40788;BME280;26497;52.494;7.546;2022-12-05T02:12:37;101196.50;;;9.78;61.46
40788;BME280;26497;52.494;7.546;2022-12-05T02:15:27;101192.88;;;9.70;61.76
40788;BME280;26497;52.494;7.546;2022-12-05T02:18:19;101193.63;;;9.59;62.46
40788;BME280;26497;52.494;7.546;2022-12-05T02:21:12;101200.69;;;9.61;62.55
40788;BME280;26497;52.494;7.546;2022-12-05T02:27:02;101190.06;;;9.53;62.95
40788;BME280;26497;52.494;7.546;2022-12-05T02:30:13;101187.38;;;9.50;63.18
40788;BME280;26497;52.494;7.546;2022-12-05T02:33:02;101188.34;;;9.56;62.95
40788;BME280;26497;52.494;7.546;2022-12-05T02:35:48;101180.28;;;9.44;63.40
40788;BME280;26497;52.494;7.546;2022-12-05T02:38:25;101180.34;;;9.49;63.53
40788;BME280;26497;52.494;7.546;2022-12-05T02:41:04;101182.31;;;9.65;62.90
40788;BME280;26497;52.494;7.546;2022-12-05T02:43:40;101180.50;;;9.63;62.85
40788;BME280;26497;52.494;7.546;2022-12-05T02:46:13;101173.63;;;9.72;62.85
40788;BME280;26497;52.494;7.546;2022-12-05T02:48:44;101173.53;;;9.66;62.83
40788;BME280;26497;52.494;7.546;2022-12-05T02:51:16;101179.53;;;9.53;63.26
40788;BME280;26497;52.494;7.546;2022-12-05T02:53:46;101182.19;;;9.56;63.67
40788;BME280;26497;52.494;7.546;2022-12-05T02:56:14;101174.91;;;9.35;64.28
40788;BME280;26497;52.494;7.546;2022-12-05T02:58:49;101176.66;;;9.36;64.64
40788;BME280;26497;52.494;7.546;2022-12-05T03:01:22;101165.97;;;9.20;64.98
40788;BME280;26497;52.494;7.546;2022-12-05T03:03:50;101168.59;;;9.22;65.33
40788;BME280;26497;52.494;7.546;2022-12-05T03:06:20;101172.13;;;9.22;65.17
40788;BME280;26497;52.494;7.546;2022-12-05T03:08:53;101162.34;;;9.13;65.40
40788;BME280;26497;52.494;7.546;2022-12-05T03:11:21;101170.38;;;9.23;65.10
40788;BME280;26497;52.494;7.546;2022-12-05T03:13:52;101167.91;;;9.35;64.78
40788;BME280;26497;52.494;7.546;2022-12-05T03:16:26;101161.81;;;9.39;64.48
40788;BME280;26497;52.494;7.546;2022-12-05T03:18:59;101167.16;;;9.46;64.34
40788;BME280;26497;52.494;7.546;2022-12-05T03:21:32;101172.41;;;9.47;64.40
40788;BME280;26497;52.494;7.546;2022-12-05T03:24:03;101168.09;;;9.51;64.15
40788;BME280;26497;52.494;7.546;2022-12-05T03:26:39;101171.41;;;9.34;64.80
40788;BME280;26497;52.494;7.546;2022-12-05T03:29:21;101164.34;;;9.32;65.12
40788;BME280;26497;52.494;7.546;2022-12-05T03:32:02;101175.75;;;9.34;65.17
40788;BME280;26497;52.494;7.546;2022-12-05T03:34:41;101175.09;;;9.50;64.28
40788;BME280;26497;52.494;7.546;2022-12-05T03:37:18;101177.59;;;9.39;64.90
40788;BME280;26497;52.494;7.546;2022-12-05T03:39:52;101177.66;;;9.44;64.01
40788;BME280;26497;52.494;7.546;2022-12-05T03:46:05;101185.63;;;9.49;64.13
40788;BME280;26497;52.494;7.546;2022-12-05T03:48:39;101193.72;;;9.64;63.76
40788;BME280;26497;52.494;7.546;2022-12-05T03:51:12;101201.63;;;9.64;63.46
40788;BME280;26497;52.494;7.546;2022-12-05T03:53:43;101205.03;;;9.57;63.53
40788;BME280;26497;52.494;7.546;2022-12-05T03:56:14;101206.81;;;9.58;63.27
40788;BME280;26497;52.494;7.546;2022-12-05T03:58:47;101204.06;;;9.50;63.92
40788;BME280;26497;52.494;7.546;2022-12-05T04:01:17;101200.34;;;9.34;64.22
40788;BME280;26497;52.494;7.546;2022-12-05T04:03:51;101195.25;;;9.47;64.12
40788;BME280;26497;52.494;7.546;2022-12-05T04:06:25;101199.66;;;9.49;64.06
40788;BME280;26497;52.494;7.546;2022-12-05T04:08:58;101197.81;;;9.40;63.98
40788;BME280;26497;52.494;7.546;2022-12-05T04:11:32;101202.16;;;9.38;64.24
40788;BME280;26497;52.494;7.546;2022-12-05T04:14:05;101197.69;;;9.31;64.16
40788;BME280;26497;52.494;7.546;2022-12-05T04:16:39;101196.91;;;9.40;64.42
40788;BME280;26497;52.494;7.546;2022-12-05T04:19:28;101196.22;;;9.56;63.34
40788;BME280;26497;52.494;7.546;2022-12-05T04:22:18;101197.09;;;9.54;63.66
40788;BME280;26497;52.494;7.546;2022-12-05T04:24:45;101203.16;;;9.47;63.63
40788;BME280;26497;52.494;7.546;2022-12-05T04:27:37;101200.56;;;9.50;63.64
40788;BME280;26497;52.494;7.546;2022-12-05T04:30:08;101202.94;;;9.33;63.98
40788;BME280;26497;52.494;7.546;2022-12-05T04:32:42;101204.91;;;9.48;63.89
40788;BME280;26497;52.494;7.546;2022-12-05T04:35:18;101201.41;;;9.49;63.85
40788;BME280;26497;52.494;7.546;2022-12-05T04:37:50;101202.56;;;9.69;63.27
40788;BME280;26497;52.494;7.546;2022-12-05T04:40:21;101193.78;;;9.72;62.68
40788;BME280;26497;52.494;7.546;2022-12-05T04:42:51;101198.06;;;9.62;62.96
40788;BME280;26497;52.494;7.546;2022-12-05T04:45:21;101198.06;;;9.64;63.00
40788;BME280;26497;52.494;7.546;2022-12-05T04:47:54;101199.09;;;9.73;62.75
40788;BME280;26497;52.494;7.546;2022-12-05T04:50:27;101206.84;;;9.63;62.96
40788;BME280;26497;52.494;7.546;2022-12-05T04:52:56;101201.56;;;9.61;62.80
40788;BME280;26497;52.494;7.546;2022-12-05T04:55:26;101200.69;;;9.61;62.76
40788;BME280;26497;52.494;7.546;2022-12-05T04:58:02;101194.28;;;9.40;63.60
40788;BME280;26497;52.494;7.546;2022-12-05T05:00:38;101190.81;;;9.42;63.70
40788;BME280;26497;52.494;7.546;2022-12-05T05:03:13;101196.16;;;9.49;63.22
40788;BME280;26497;52.494;7.546;2022-12-05T05:05:47;101196.16;;;9.50;63.51
40788;BME280;26497;52.494;7.546;2022-12-05T05:08:17;101206.72;;;9.52;63.47
40788;BME280;26497;52.494;7.546;2022-12-05T05:10:56;101199.72;;;9.55;63.55
40788;BME280;26497;52.494;7.546;2022-12-05T05:13:27;101192.66;;;9.50;63.41
40788;BME280;26497;52.494;7.546;2022-12-05T05:15:54;101201.41;;;9.49;63.81
40788;BME280;26497;52.494;7.546;2022-12-05T05:18:21;101204.00;;;9.46;63.36
40788;BME280;26497;52.494;7.546;2022-12-05T05:20:49;101197.06;;;9.51;63.57
40788;BME280;26497;52.494;7.546;2022-12-05T05:26:57;101198.00;;;9.57;63.29
40788;BME280;26497;52.494;7.546;2022-12-05T05:29:24;101203.94;;;9.41;63.95
40788;BME280;26497;52.494;7.546;2022-12-05T05:31:51;101205.94;;;9.61;63.38
40788;BME280;26497;52.494;7.546;2022-12-05T05:34:18;101201.44;;;9.50;63.63
40788;BME280;26497;52.494;7.546;2022-12-05T05:36:50;101200.59;;;9.54;63.64
40788;BME280;26497;52.494;7.546;2022-12-05T05:39:17;101203.28;;;9.57;63.68
40788;BME280;26497;52.494;7.546;2022-12-05T05:41:44;101205.19;;;9.69;63.35
40788;BME280;26497;52.494;7.546;2022-12-05T05:44:11;101201.56;;;9.61;63.40
40788;BME280;26497;52.494;7.546;2022-12-05T05:46:38;101193.75;;;9.69;63.16
40788;BME280;26497;52.494;7.546;2022-12-05T05:49:05;101200.69;;;9.61;63.48
40788;BME280;26497;52.494;7.546;2022-12-05T05:51:32;101199.56;;;9.41;63.66
40788;BME280;26497;52.494;7.546;2022-12-05T05:54:01;101201.63;;;9.64;63.19
40788;BME280;26497;52.494;7.546;2022-12-05T05:56:28;101205.00;;;9.55;63.62
40788;BME280;26497;52.494;7.546;2022-12-05T05:58:58;101202.38;;;9.54;63.44
40788;BME280;26497;52.494;7.546;2022-12-05T06:01:26;101200.66;;;9.59;63.54
40788;BME280;26497;52.494;7.546;2022-12-05T06:03:53;101212.16;;;9.66;63.26
40788;BME280;26497;52.494;7.546;2022-12-05T06:06:21;101213.00;;;9.63;63.21
40788;BME280;26497;52.494;7.546;2022-12-05T06:08:48;101203.56;;;9.81;62.58
40788;BME280;26497;52.494;7.546;2022-12-05T06:11:19;101206.91;;;9.69;62.88
40788;BME280;26497;52.494;7.546;2022-12-05T06:13:46;101198.97;;;9.64;63.33
40788;BME280;26497;52.494;7.546;2022-12-05T06:16:15;101207.00;;;9.75;63.04
40788;BME280;26497;52.494;7.546;2022-12-05T06:18:43;101197.19;;;9.62;63.29
40788;BME280;26497;52.494;7.546;2022-12-05T06:21:10;101207.25;;;9.26;64.46
40788;BME280;26497;52.494;7.546;2022-12-05T06:23:38;101207.63;;;9.55;63.85
40788;BME280;26497;52.494;7.546;2022-12-05T06:26:09;101212.84;;;9.51;64.30
40788;BME280;26497;52.494;7.546;2022-12-05T06:28:39;101206.81;;;9.59;63.83
40788;BME280;26497;52.494;7.546;2022-12-05T06:31:07;101208.72;;;9.71;63.31
40788;BME280;26497;52.494;7.546;2022-12-05T06:33:34;101210.34;;;9.60;63.60
40788;BME280;26497;52.494;7.546;2022-12-05T06:36:03;101205.16;;;9.68;63.21
40788;BME280;26497;52.494;7.546;2022-12-05T06:38:31;101204.28;;;9.67;63.45
40788;BME280;26497;52.494;7.546;2022-12-05T06:40:58;101206.13;;;9.74;63.12
40788;BME280;26497;52.494;7.546;2022-12-05T06:43:25;101206.00;;;9.65;63.94
40788;BME280;26497;52.494;7.546;2022-12-05T06:45:54;101208.50;;;9.53;64.23
40788;BME280;26497;52.494;7.546;2022-12-05T06:48:21;101204.25;;;9.64;64.20
40788;BME280;26497;52.494;7.546;2022-12-05T06:50:50;101201.88;;;9.86;63.49
40788;BME280;26497;52.494;7.546;2022-12-05T06:53:17;101193.72;;;9.66;63.29
40788;BME280;26497;52.494;7.546;2022-12-05T06:55:55;101203.56;;;9.82;63.26
40788;BME280;26497;52.494;7.546;2022-12-05T06:58:22;101203.53;;;9.79;63.34
40788;BME280;26497;52.494;7.546;2022-12-05T07:00:49;101194.81;;;9.85;63.11
40788;BME280;26497;52.494;7.546;2022-12-05T07:03:35;101207.06;;;9.80;63.13
40788;BME280;26497;52.494;7.546;2022-12-05T07:06:04;101199.31;;;9.92;62.89
40788;BME280;26497;52.494;7.546;2022-12-05T07:08:33;101203.59;;;9.85;63.25
40788;BME280;26497;52.494;7.546;2022-12-05T07:11:00;101211.47;;;9.82;63.67
40788;BME280;26497;52.494;7.546;2022-12-05T07:13:27;101213.34;;;9.93;62.92
40788;BME280;26497;52.494;7.546;2022-12-05T07:15:55;101214.06;;;9.78;63.53
40788;BME280;26497;52.494;7.546;2022-12-05T07:18:23;101221.13;;;9.82;63.68
40788;BME280;26497;52.494;7.546;2022-12-05T07:20:57;101218.28;;;9.63;64.46
40788;BME280;26497;52.494;7.546;2022-12-05T07:23:25;101216.63;;;9.71;64.09
40788;BME280;26497;52.494;7.546;2022-12-05T07:25:52;101217.63;;;9.83;63.83
40788;BME280;26497;52.494;7.546;2022-12-05T07:28:19;101220.94;;;9.66;64.08
40788;BME280;26497;52.494;7.546;2022-12-05T07:30:46;101222.72;;;9.67;64.57
40788;BME280;26497;52.494;7.546;2022-12-05T07:33:13;101217.41;;;9.64;64.63
40788;BME280;26497;52.494;7.546;2022-12-05T07:35:40;101221.56;;;9.47;65.24
40788;BME280;26497;52.494;7.546;2022-12-05T07:38:08;101215.78;;;9.76;64.40
40788;BME280;26497;52.494;7.546;2022-12-05T07:40:37;101223.63;;;9.69;64.71
40788;BME280;26497;52.494;7.546;2022-12-05T07:43:04;101216.78;;;9.84;64.19
40788;BME280;26497;52.494;7.546;2022-12-05T07:45:33;101215.88;;;9.83;64.16
40788;BME280;26497;52.494;7.546;2022-12-05T07:48:00;101212.34;;;9.80;64.16
40788;BME280;26497;52.494;7.546;2022-12-05T07:50:27;101214.25;;;9.93;63.95
40788;BME280;26497;52.494;7.546;2022-12-05T07:52:54;101215.94;;;9.88;63.68
40788;BME280;26497;52.494;7.546;2022-12-05T07:55:22;101221.28;;;9.97;63.60
40788;BME280;26497;52.494;7.546;2022-12-05T07:57:49;101209.00;;;9.99;63.70
40788;BME280;26497;52.494;7.546;2022-12-05T08:00:18;101214.44;;;10.15;63.30
40788;BME280;26497;52.494;7.546;2022-12-05T08:02:45;101210.13;;;10.22;63.01
40788;BME280;26497;52.494;7.546;2022-12-05T08:05:12;101218.00;;;10.18;62.94
40788;BME280;26497;52.494;7.546;2022-12-05T08:07:39;101209.25;;;10.24;62.96
40788;BME280;26497;52.494;7.546;2022-12-05T08:10:07;101210.25;;;10.34;62.56
40788;BME280;26497;52.494;7.546;2022-12-05T08:12:36;101209.28;;;10.27;62.82
40788;BME280;26497;52.494;7.546;2022-12-05T08:15:05;101217.25;;;10.29;62.68
40788;BME280;26497;52.494;7.546;2022-12-05T08:17:32;101219.03;;;10.33;62.31
40788;BME280;26497;52.494;7.546;2022-12-05T08:19:59;101219.94;;;10.35;62.31
40788;BME280;26497;52.494;7.546;2022-12-05T08:22:27;101205.75;;;10.25;62.39
40788;BME280;26497;52.494;7.546;2022-12-05T08:24:53;101218.28;;;10.43;62.09
40788;BME280;26497;52.494;7.546;2022-12-05T08:27:20;101217.44;;;10.49;61.58
40788;BME280;26497;52.494;7.546;2022-12-05T08:29:49;101219.13;;;10.41;62.07
40788;BME280;26497;52.494;7.546;2022-12-05T08:32:16;101220.03;;;10.43;61.71
40788;BME280;26497;52.494;7.546;2022-12-05T08:34:43;101217.31;;;10.38;61.89
40788;BME280;26497;52.494;7.546;2022-12-05T08:37:10;101223.38;;;10.28;62.52
40788;BME280;26497;52.494;7.546;2022-12-05T08:39:37;101227.72;;;10.24;62.78
40788;BME280;26497;52.494;7.546;2022-12-05T08:42:04;101228.63;;;10.25;62.95
40788;BME280;26497;52.494;7.546;2022-12-05T08:44:31;101234.00;;;10.37;62.23
40788;BME280;26497;52.494;7.546;2022-12-05T08:47:00;101227.69;;;10.21;63.02
40788;BME280;26497;52.494;7.546;2022-12-05T08:49:27;101230.41;;;10.30;62.84
40788;BME280;26497;52.494;7.546;2022-12-05T08:51:54;101235.75;;;10.37;62.39
40788;BME280;26497;52.494;7.546;2022-12-05T08:54:21;101234.00;;;10.39;62.92
40788;BME280;26497;52.494;7.546;2022-12-05T08:56:50;101241.88;;;10.36;62.92
40788;BME280;26497;52.494;7.546;2022-12-05T08:59:17;101234.00;;;10.37;62.86
40788;BME280;26497;52.494;7.546;2022-12-05T09:01:45;101237.50;;;10.35;63.15
40788;BME280;26497;52.494;7.546;2022-12-05T09:04:13;101241.91;;;10.39;63.12
40788;BME280;26497;52.494;7.546;2022-12-05T09:06:41;101238.50;;;10.46;62.94
40788;BME280;26497;52.494;7.546;2022-12-05T09:09:10;101241.97;;;10.40;63.00
40788;BME280;26497;52.494;7.546;2022-12-05T09:11:40;101243.91;;;10.58;62.63
40788;BME280;26497;52.494;7.546;2022-12-05T09:14:11;101251.78;;;10.55;62.72
40788;BME280;26497;52.494;7.546;2022-12-05T09:16:38;101245.59;;;10.53;62.99
40788;BME280;26497;52.494;7.546;2022-12-05T09:19:13;101244.66;;;10.45;62.92
40788;BME280;26497;52.494;7.546;2022-12-05T09:21:41;101246.44;;;10.49;62.89
40788;BME280;26497;52.494;7.546;2022-12-05T09:24:10;101242.03;;;10.46;63.12
40788;BME280;26497;52.494;7.546;2022-12-05T09:26:38;101249.13;;;10.51;62.92
40788;BME280;26497;52.494;7.546;2022-12-05T09:29:05;101247.44;;;10.59;62.64
40788;BME280;26497;52.494;7.546;2022-12-05T09:31:32;101253.66;;;10.69;62.28
40788;BME280;26497;52.494;7.546;2022-12-05T09:34:00;101247.47;;;10.68;62.52
40788;BME280;26497;52.494;7.546;2022-12-05T09:36:30;101254.47;;;10.63;62.11
40788;BME280;26497;52.494;7.546;2022-12-05T09:39:00;101261.53;;;10.67;62.01
40788;BME280;26497;52.494;7.546;2022-12-05T09:41:58;101256.22;;;10.59;62.71
40788;BME280;26497;52.494;7.546;2022-12-05T09:45:02;101261.50;;;10.64;62.46
40788;BME280;26497;52.494;7.546;2022-12-05T09:47:53;101257.13;;;10.60;62.35
40788;BME280;26497;52.494;7.546;2022-12-05T09:50:24;101254.50;;;10.65;62.58
40788;BME280;26497;52.494;7.546;2022-12-05T09:53:09;101262.47;;;10.71;62.29
40788;BME280;26497;52.494;7.546;2022-12-05T09:55:45;101259.84;;;10.71;62.52
40788;BME280;26497;52.494;7.546;2022-12-05T09:58:37;101255.44;;;10.73;62.41
40788;BME280;26497;52.494;7.546;2022-12-05T10:01:25;101251.13;;;10.83;62.23
40788;BME280;26497;52.494;7.546;2022-12-05T10:04:09;101255.44;;;10.70;62.50
40788;BME280;26497;52.494;7.546;2022-12-05T10:06:43;101257.25;;;10.77;62.51
40788;BME280;26497;52.494;7.546;2022-12-05T10:09:33;101248.47;;;10.81;62.67
40788;BME280;26497;52.494;7.546;2022-12-05T10:12:13;101246.72;;;10.80;62.71
40788;BME280;26497;52.494;7.546;2022-12-05T10:14:50;101252.03;;;10.83;63.07
40788;BME280;26497;52.494;7.546;2022-12-05T10:17:26;101245.06;;;10.91;62.76
40788;BME280;26497;52.494;7.546;2022-12-05T10:19:58;101248.56;;;10.90;62.80
40788;BME280;26497;52.494;7.546;2022-12-05T10:22:41;101243.22;;;10.84;62.86
40788;BME280;26497;52.494;7.546;2022-12-05T10:25:13;101242.38;;;10.85;63.04
40788;BME280;26497;52.494;7.546;2022-12-05T10:27:48;101237.13;;;10.91;62.84
40788;BME280;26497;52.494;7.546;2022-12-05T10:30:17;101244.19;;;10.96;63.01
40788;BME280;26497;52.494;7.546;2022-12-05T10:32:52;101245.13;;;11.01;62.83
40788;BME280;26497;52.494;7.546;2022-12-05T10:35:21;101241.66;;;11.08;62.47
40788;BME280;26497;52.494;7.546;2022-12-05T10:37:50;101242.53;;;11.09;62.35
40788;BME280;26497;52.494;7.546;2022-12-05T10:40:20;101238.09;;;11.04;62.38
40788;BME280;26497;52.494;7.546;2022-12-05T10:42:48;101232.84;;;11.06;62.56
40788;BME280;26497;52.494;7.546;2022-12-05T10:45:19;101238.97;;;11.02;62.35
40788;BME280;26497;52.494;7.546;2022-12-05T10:47:48;101233.69;;;11.03;62.75
40788;BME280;26497;52.494;7.546;2022-12-05T10:50:23;101235.47;;;11.06;63.30
40788;BME280;26497;52.494;7.546;2022-12-05T10:52:52;101229.34;;;11.10;62.61
40788;BME280;26497;52.494;7.546;2022-12-05T10:55:21;101234.66;;;11.13;62.56
40788;BME280;26497;52.494;7.546;2022-12-05T10:57:50;101228.44;;;11.08;62.58
40788;BME280;26497;52.494;7.546;2022-12-05T11:00:24;101232.00;;;11.13;62.48
40788;BME280;26497;52.494;7.546;2022-12-05T11:02:55;101230.25;;;11.12;62.78
40788;BME280;26497;52.494;7.546;2022-12-05T11:05:28;101233.75;;;11.13;62.54
40788;BME280;26497;52.494;7.546;2022-12-05T11:07:56;101236.38;;;11.11;62.76
40788;BME280;26497;52.494;7.546;2022-12-05T11:10:30;101224.94;;;11.14;62.66
40788;BME280;26497;52.494;7.546;2022-12-05T11:12:59;101224.09;;;11.13;62.56
40788;BME280;26497;52.494;7.546;2022-12-05T11:15:28;101221.44;;;11.10;62.60
40788;BME280;26497;52.494;7.546;2022-12-05T11:17:58;101219.69;;;11.12;62.39
40788;BME280;26497;52.494;7.546;2022-12-05T11:20:42;101222.31;;;11.09;62.55
40788;BME280;26497;52.494;7.546;2022-12-05T11:23:28;101224.03;;;11.04;62.75
40788;BME280;26497;52.494;7.546;2022-12-05T11:25:57;101224.91;;;11.06;62.65
40788;BME280;26497;52.494;7.546;2022-12-05T11:28:35;101228.41;;;11.02;62.82
40788;BME280;26497;52.494;7.546;2022-12-05T11:31:08;101223.13;;;11.02;62.60
40788;BME280;26497;52.494;7.546;2022-12-05T11:34:08;101219.63;;;11.04;62.40
40788;BME280;26497;52.494;7.546;2022-12-05T11:36:41;101221.31;;;10.96;62.29
40788;BME280;26497;52.494;7.546;2022-12-05T11:39:11;101222.22;;;10.97;62.31
40788;BME280;26497;52.494;7.546;2022-12-05T11:45:31;101219.47;;;10.84;62.49
40788;BME280;26497;52.494;7.546;2022-12-05T11:48:30;101214.19;;;10.86;62.00
40788;BME280;26497;52.494;7.546;2022-12-05T11:51:26;101214.19;;;10.81;62.10
40788;BME280;26497;52.494;7.546;2022-12-05T12:00:22;101204.47;;;10.79;62.34
40788;BME280;26497;52.494;7.546;2022-12-05T12:03:24;101192.22;;;10.82;62.36
40788;BME280;26497;52.494;7.546;2022-12-05T12:06:14;101195.66;;;10.75;62.52
40788;BME280;26497;52.494;7.546;2022-12-05T12:08:59;101193.06;;;10.81;62.32
40788;BME280;26497;52.494;7.546;2022-12-05T12:11:41;101192.25;;;10.88;61.94
40788;BME280;26497;52.494;7.546;2022-12-05T12:14:18;101193.13;;;10.89;62.08
40788;BME280;26497;52.494;7.546;2022-12-05T12:16:52;101190.50;;;10.90;62.17
40788;BME280;26497;52.494;7.546;2022-12-05T12:23:34;101195.75;;;10.89;62.37
40788;BME280;26497;52.494;7.546;2022-12-05T12:26:16;101205.44;;;10.90;62.71
40788;BME280;26497;52.494;7.546;2022-12-05T12:29:05;101202.00;;;10.99;62.30
40788;BME280;26497;52.494;7.546;2022-12-05T12:31:58;101196.75;;;11.02;62.42
40788;BME280;26497;52.494;7.546;2022-12-05T12:34:47;101192.41;;;11.15;61.51
40788;BME280;26497;52.494;7.546;2022-12-05T12:37:29;101196.75;;;11.02;62.22
40788;BME280;26497;52.494;7.546;2022-12-05T12:40:06;101193.25;;;11.09;62.07
40788;BME280;26497;52.494;7.546;2022-12-05T12:42:48;101193.22;;;11.04;61.91
40788;BME280;26497;52.494;7.546;2022-12-05T12:45:43;101191.47;;;11.02;61.84
40788;BME280;26497;52.494;7.546;2022-12-05T12:48:31;101191.34;;;10.86;62.00
40788;BME280;26497;52.494;7.546;2022-12-05T12:51:02;101196.59;;;10.85;62.28
40788;BME280;26497;52.494;7.546;2022-12-05T12:53:53;101189.56;;;10.84;62.18
40788;BME280;26497;52.494;7.546;2022-12-05T12:56:34;101190.44;;;10.81;62.10
40788;BME280;26497;52.494;7.546;2022-12-05T12:59:22;101186.88;;;10.77;62.11
40788;BME280;26497;52.494;7.546;2022-12-05T13:01:57;101189.41;;;10.65;62.36
40788;BME280;26497;52.494;7.546;2022-12-05T13:04:32;101186.75;;;10.57;62.52
40788;BME280;26497;52.494;7.546;2022-12-05T13:07:09;101184.13;;;10.60;62.87
40788;BME280;26497;52.494;7.546;2022-12-05T13:09:42;101191.19;;;10.65;62.65
40788;BME280;26497;52.494;7.546;2022-12-05T13:12:14;101179.78;;;10.66;62.52
40788;BME280;26497;52.494;7.546;2022-12-05T13:14:48;101181.56;;;10.70;62.69
40788;BME280;26497;52.494;7.546;2022-12-05T13:17:19;101183.31;;;10.71;62.42
40788;BME280;26497;52.494;7.546;2022-12-05T13:19:51;101185.13;;;10.78;62.18
40788;BME280;26497;52.494;7.546;2022-12-05T13:22:22;101186.00;;;10.77;61.95
40788;BME280;26497;52.494;7.546;2022-12-05T13:24:51;101188.56;;;10.65;62.05
40788;BME280;26497;52.494;7.546;2022-12-05T13:27:20;101185.91;;;10.60;62.21
40788;BME280;26497;52.494;7.546;2022-12-05T13:29:51;101192.88;;;10.56;62.39
40788;BME280;26497;52.494;7.546;2022-12-05T13:32:37;101195.47;;;10.50;62.34
40788;BME280;26497;52.494;7.546;2022-12-05T13:35:10;101195.41;;;10.42;62.79
40788;BME280;26497;52.494;7.546;2022-12-05T13:37:45;101187.38;;;10.35;62.73
40788;BME280;26497;52.494;7.546;2022-12-05T13:40:33;101197.78;;;10.17;63.16
40788;BME280;26497;52.494;7.546;2022-12-05T13:43:21;101189.06;;;10.25;63.23
40788;BME280;26497;52.494;7.546;2022-12-05T13:46:08;101186.38;;;10.20;63.45
40788;BME280;26497;52.494;7.546;2022-12-05T13:48:41;101185.47;;;10.16;63.75